Terminal Aerodrome Forecast
Issued by NWS Wilmington, OH

Current Version | Previous Version | Graphics & Text | Print | Product List | Glossary On
Versions: 1 2 3 4 5 6 7 8 9 10 11 12 13 14 15 16 17 18 19 20 21 22 23 24 25 26 27
000
FTUS41 KILN 240500
TAFDAY
TAF
KDAY 240539Z 2406/2506 29005KT 5SM BR OVC150
     FM241000 25008KT P6SM OVC018
     FM241600 25011KT P6SM SCT025 BKN060
     FM241800 26012G20KT P6SM OVC025
     FM242300 26009KT P6SM OVC022=

USA.gov is the U.S. government's official web portal to all federal, state and local government web resources and services.